sensor_id;sensor_type;location;lat;lon;timestamp;temperature;humidity
32612;DHT22;19030;49.478;8.986;2022-12-18T00:01:57;-7.40;99.90
32612;DHT22;19030;49.478;8.986;2022-12-18T00:04:01;-7.30;99.90
32612;DHT22;19030;49.478;8.986;2022-12-18T00:06:02;-7.40;99.90
32612;DHT22;19030;49.478;8.986;2022-12-18T00:08:02;-7.40;99.90
32612;DHT22;19030;49.478;8.986;2022-12-18T00:10:03;-7.40;99.90
32612;DHT22;19030;49.478;8.986;2022-12-18T00:12:04;-7.40;99.90
32612;DHT22;19030;49.478;8.986;2022-12-18T00:14:05;-7.40;99.90
32612;DHT22;19030;49.478;8.986;2022-12-18T00:16:08;-7.40;99.90
32612;DHT22;19030;49.478;8.986;2022-12-18T00:18:09;-7.40;99.90
32612;DHT22;19030;49.478;8.986;2022-12-18T00:20:10;-7.40;99.90
32612;DHT22;19030;49.478;8.986;2022-12-18T00:22:11;-7.50;99.90
32612;DHT22;19030;49.478;8.986;2022-12-18T00:24:11;-7.50;99.90
32612;DHT22;19030;49.478;8.986;2022-12-18T00:26:18;-7.50;99.90
32612;DHT22;19030;49.478;8.986;2022-12-18T00:28:20;-7.50;99.90
32612;DHT22;19030;49.478;8.986;2022-12-18T00:30:20;-7.40;99.90
32612;DHT22;19030;49.478;8.986;2022-12-18T00:32:21;-7.50;99.90
32612;DHT22;19030;49.478;8.986;2022-12-18T00:34:22;-7.50;99.90
32612;DHT22;19030;49.478;8.986;2022-12-18T00:36:27;-7.60;99.90
32612;DHT22;19030;49.478;8.986;2022-12-18T00:38:29;-7.60;99.90
32612;DHT22;19030;49.478;8.986;2022-12-18T00:40:29;-7.50;99.90
32612;DHT22;19030;49.478;8.986;2022-12-18T00:42:30;-7.50;99.90
32612;DHT22;19030;49.478;8.986;2022-12-18T00:44:49;-7.40;99.90
32612;DHT22;19030;49.478;8.986;2022-12-18T00:46:49;-7.50;99.90
32612;DHT22;19030;49.478;8.986;2022-12-18T00:48:50;-7.60;99.90
32612;DHT22;19030;49.478;8.986;2022-12-18T00:50:51;-7.60;99.90
32612;DHT22;19030;49.478;8.986;2022-12-18T00:52:52;-7.60;99.90
32612;DHT22;19030;49.478;8.986;2022-12-18T00:54:52;-7.60;99.90
32612;DHT22;19030;49.478;8.986;2022-12-18T00:56:53;-7.60;99.90
32612;DHT22;19030;49.478;8.986;2022-12-18T00:58:55;-7.70;99.90
32612;DHT22;19030;49.478;8.986;2022-12-18T01:00:56;-7.70;99.90
32612;DHT22;19030;49.478;8.986;2022-12-18T01:02:56;-7.70;99.90
32612;DHT22;19030;49.478;8.986;2022-12-18T01:04:58;-7.70;99.90
32612;DHT22;19030;49.478;8.986;2022-12-18T01:06:58;-7.60;99.90
32612;DHT22;19030;49.478;8.986;2022-12-18T01:08:59;-7.60;99.90
32612;DHT22;19030;49.478;8.986;2022-12-18T01:11:00;-7.60;99.90
32612;DHT22;19030;49.478;8.986;2022-12-18T01:13:00;-7.60;99.90
32612;DHT22;19030;49.478;8.986;2022-12-18T01:15:01;-7.70;99.90
32612;DHT22;19030;49.478;8.986;2022-12-18T01:17:02;-7.70;99.90
32612;DHT22;19030;49.478;8.986;2022-12-18T01:19:07;-7.70;99.90
32612;DHT22;19030;49.478;8.986;2022-12-18T01:21:08;-7.70;99.90
32612;DHT22;19030;49.478;8.986;2022-12-18T01:23:11;-7.70;99.90
32612;DHT22;19030;49.478;8.986;2022-12-18T01:25:11;-7.70;99.90
32612;DHT22;19030;49.478;8.986;2022-12-18T01:27:12;-7.70;99.90
32612;DHT22;19030;49.478;8.986;2022-12-18T01:29:14;-7.70;99.90
32612;DHT22;19030;49.478;8.986;2022-12-18T01:31:17;-7.70;99.90
32612;DHT22;19030;49.478;8.986;2022-12-18T01:33:18;-7.70;99.90
32612;DHT22;19030;49.478;8.986;2022-12-18T01:35:19;-7.70;99.90
32612;DHT22;19030;49.478;8.986;2022-12-18T01:37:20;-7.70;99.90
32612;DHT22;19030;49.478;8.986;2022-12-18T01:39:21;-7.80;99.90
32612;DHT22;19030;49.478;8.986;2022-12-18T01:41:24;-7.80;99.90
32612;DHT22;19030;49.478;8.986;2022-12-18T01:45:42;-7.80;99.90
32612;DHT22;19030;49.478;8.986;2022-12-18T01:48:00;-7.80;99.90
32612;DHT22;19030;49.478;8.986;2022-12-18T01:50:11;-7.70;99.90
32612;DHT22;19030;49.478;8.986;2022-12-18T01:52:13;-7.80;99.90
32612;DHT22;19030;49.478;8.986;2022-12-18T01:54:14;-7.90;99.90
32612;DHT22;19030;49.478;8.986;2022-12-18T01:56:16;-7.90;99.90
32612;DHT22;19030;49.478;8.986;2022-12-18T01:58:19;-7.90;99.90
32612;DHT22;19030;49.478;8.986;2022-12-18T02:00:22;-8.00;99.90
32612;DHT22;19030;49.478;8.986;2022-12-18T02:02:27;-8.00;99.90
32612;DHT22;19030;49.478;8.986;2022-12-18T02:04:29;-7.90;99.90
32612;DHT22;19030;49.478;8.986;2022-12-18T02:06:35;-7.90;99.90
32612;DHT22;19030;49.478;8.986;2022-12-18T02:08:44;-7.90;99.90
32612;DHT22;19030;49.478;8.986;2022-12-18T02:13:25;-8.00;99.90
32612;DHT22;19030;49.478;8.986;2022-12-18T02:15:32;-8.00;99.90
32612;DHT22;19030;49.478;8.986;2022-12-18T02:17:42;-8.00;99.90
32612;DHT22;19030;49.478;8.986;2022-12-18T02:20:08;-8.00;99.90
32612;DHT22;19030;49.478;8.986;2022-12-18T02:26:37;-8.00;99.90
32612;DHT22;19030;49.478;8.986;2022-12-18T02:29:00;-8.00;99.90
32612;DHT22;19030;49.478;8.986;2022-12-18T02:31:06;-8.00;99.90
32612;DHT22;19030;49.478;8.986;2022-12-18T02:33:09;-8.00;99.90
32612;DHT22;19030;49.478;8.986;2022-12-18T02:35:16;-8.00;99.90
32612;DHT22;19030;49.478;8.986;2022-12-18T02:37:18;-8.00;99.90
32612;DHT22;19030;49.478;8.986;2022-12-18T02:39:22;-8.00;99.90
32612;DHT22;19030;49.478;8.986;2022-12-18T02:41:32;-8.00;99.90
32612;DHT22;19030;49.478;8.986;2022-12-18T02:43:32;-8.00;99.90
32612;DHT22;19030;49.478;8.986;2022-12-18T02:45:33;-8.00;99.90
32612;DHT22;19030;49.478;8.986;2022-12-18T02:47:38;-8.00;99.90
32612;DHT22;19030;49.478;8.986;2022-12-18T02:54:13;-8.10;99.90
32612;DHT22;19030;49.478;8.986;2022-12-18T02:56:33;-8.10;99.90
32612;DHT22;19030;49.478;8.986;2022-12-18T02:59:05;-8.10;99.90
32612;DHT22;19030;49.478;8.986;2022-12-18T03:01:27;-8.20;99.90
32612;DHT22;19030;49.478;8.986;2022-12-18T03:03:39;-8.10;99.90
32612;DHT22;19030;49.478;8.986;2022-12-18T03:05:53;-8.10;99.90
32612;DHT22;19030;49.478;8.986;2022-12-18T03:08:07;-8.10;99.90
32612;DHT22;19030;49.478;8.986;2022-12-18T03:10:15;-8.10;99.90
32612;DHT22;19030;49.478;8.986;2022-12-18T03:12:30;-8.00;99.90
32612;DHT22;19030;49.478;8.986;2022-12-18T03:14:34;-8.00;99.90
32612;DHT22;19030;49.478;8.986;2022-12-18T03:16:36;-8.10;99.90
32612;DHT22;19030;49.478;8.986;2022-12-18T03:18:49;-8.10;99.90
32612;DHT22;19030;49.478;8.986;2022-12-18T03:20:54;-8.20;99.90
32612;DHT22;19030;49.478;8.986;2022-12-18T03:23:06;-8.20;99.90
32612;DHT22;19030;49.478;8.986;2022-12-18T03:25:10;-8.20;99.90
32612;DHT22;19030;49.478;8.986;2022-12-18T03:27:15;-8.20;99.90
32612;DHT22;19030;49.478;8.986;2022-12-18T03:29:43;-8.20;99.90
32612;DHT22;19030;49.478;8.986;2022-12-18T03:31:51;-8.20;99.90
32612;DHT22;19030;49.478;8.986;2022-12-18T03:33:56;-8.20;99.90
32612;DHT22;19030;49.478;8.986;2022-12-18T03:36:04;-8.20;99.90
32612;DHT22;19030;49.478;8.986;2022-12-18T03:38:07;-8.20;99.90
32612;DHT22;19030;49.478;8.986;2022-12-18T03:40:10;-8.20;99.90
32612;DHT22;19030;49.478;8.986;2022-12-18T03:42:29;-8.20;99.90
32612;DHT22;19030;49.478;8.986;2022-12-18T03:49:35;-8.10;99.90
32612;DHT22;19030;49.478;8.986;2022-12-18T03:51:45;-8.20;99.90
32612;DHT22;19030;49.478;8.986;2022-12-18T03:53:57;-8.10;99.90
32612;DHT22;19030;49.478;8.986;2022-12-18T03:56:04;-8.10;99.90
32612;DHT22;19030;49.478;8.986;2022-12-18T03:58:13;-8.20;99.90
32612;DHT22;19030;49.478;8.986;2022-12-18T04:00:26;-8.20;99.90
32612;DHT22;19030;49.478;8.986;2022-12-18T04:02:40;-8.20;99.90
32612;DHT22;19030;49.478;8.986;2022-12-18T04:04:44;-8.30;99.90
32612;DHT22;19030;49.478;8.986;2022-12-18T04:06:47;-8.30;99.90
32612;DHT22;19030;49.478;8.986;2022-12-18T04:08:52;-8.30;99.90
32612;DHT22;19030;49.478;8.986;2022-12-18T04:10:56;-8.30;99.90
32612;DHT22;19030;49.478;8.986;2022-12-18T04:12:57;-8.30;99.90
32612;DHT22;19030;49.478;8.986;2022-12-18T04:14:59;-8.30;99.90
32612;DHT22;19030;49.478;8.986;2022-12-18T04:17:01;-8.20;99.90
32612;DHT22;19030;49.478;8.986;2022-12-18T04:19:06;-8.30;99.90
32612;DHT22;19030;49.478;8.986;2022-12-18T04:21:12;-8.30;99.90
32612;DHT22;19030;49.478;8.986;2022-12-18T04:23:13;-8.30;99.90
32612;DHT22;19030;49.478;8.986;2022-12-18T04:25:14;-8.30;99.90
32612;DHT22;19030;49.478;8.986;2022-12-18T04:27:27;-8.30;99.90
32612;DHT22;19030;49.478;8.986;2022-12-18T04:29:27;-8.30;99.90
32612;DHT22;19030;49.478;8.986;2022-12-18T04:31:28;-8.30;99.90
32612;DHT22;19030;49.478;8.986;2022-12-18T04:33:29;-8.30;99.90
32612;DHT22;19030;49.478;8.986;2022-12-18T04:35:30;-8.30;99.90
32612;DHT22;19030;49.478;8.986;2022-12-18T04:37:31;-8.30;99.90
32612;DHT22;19030;49.478;8.986;2022-12-18T04:39:31;-8.30;99.90
32612;DHT22;19030;49.478;8.986;2022-12-18T04:41:37;-8.40;99.90
32612;DHT22;19030;49.478;8.986;2022-12-18T04:43:39;-8.40;99.90
32612;DHT22;19030;49.478;8.986;2022-12-18T04:45:39;-8.40;99.90
32612;DHT22;19030;49.478;8.986;2022-12-18T04:47:40;-8.40;99.90
32612;DHT22;19030;49.478;8.986;2022-12-18T04:49:40;-8.40;99.90
32612;DHT22;19030;49.478;8.986;2022-12-18T04:51:41;-8.40;99.90
32612;DHT22;19030;49.478;8.986;2022-12-18T04:53:41;-8.50;99.90
32612;DHT22;19030;49.478;8.986;2022-12-18T04:55:42;-8.50;99.90
32612;DHT22;19030;49.478;8.986;2022-12-18T04:57:42;-8.50;99.90
32612;DHT22;19030;49.478;8.986;2022-12-18T04:59:43;-8.50;99.90
32612;DHT22;19030;49.478;8.986;2022-12-18T05:01:44;-8.50;99.90
32612;DHT22;19030;49.478;8.986;2022-12-18T05:03:46;-8.50;99.90
32612;DHT22;19030;49.478;8.986;2022-12-18T05:05:50;-8.50;99.90
32612;DHT22;19030;49.478;8.986;2022-12-18T05:07:51;-8.50;99.90
32612;DHT22;19030;49.478;8.986;2022-12-18T05:09:52;-8.60;99.90
32612;DHT22;19030;49.478;8.986;2022-12-18T05:11:52;-8.60;99.90
32612;DHT22;19030;49.478;8.986;2022-12-18T05:13:53;-8.50;99.90
32612;DHT22;19030;49.478;8.986;2022-12-18T05:15:56;-8.50;99.90
32612;DHT22;19030;49.478;8.986;2022-12-18T05:17:58;-8.50;99.90
32612;DHT22;19030;49.478;8.986;2022-12-18T05:19:58;-8.40;99.90
32612;DHT22;19030;49.478;8.986;2022-12-18T05:21:59;-8.40;99.90
32612;DHT22;19030;49.478;8.986;2022-12-18T05:24:00;-8.50;99.90
32612;DHT22;19030;49.478;8.986;2022-12-18T05:26:03;-8.50;99.90
32612;DHT22;19030;49.478;8.986;2022-12-18T05:28:04;-8.50;99.90
32612;DHT22;19030;49.478;8.986;2022-12-18T05:30:05;-8.50;99.90
32612;DHT22;19030;49.478;8.986;2022-12-18T05:32:06;-8.50;99.90
32612;DHT22;19030;49.478;8.986;2022-12-18T05:34:07;-8.50;99.90
32612;DHT22;19030;49.478;8.986;2022-12-18T05:36:09;-8.50;99.90
32612;DHT22;19030;49.478;8.986;2022-12-18T05:38:10;-8.50;99.90
32612;DHT22;19030;49.478;8.986;2022-12-18T05:40:11;-8.50;99.90
32612;DHT22;19030;49.478;8.986;2022-12-18T05:42:12;-8.50;99.90
32612;DHT22;19030;49.478;8.986;2022-12-18T05:44:13;-8.50;99.90
32612;DHT22;19030;49.478;8.986;2022-12-18T05:46:16;-8.50;99.90
32612;DHT22;19030;49.478;8.986;2022-12-18T05:48:18;-8.50;99.90
32612;DHT22;19030;49.478;8.986;2022-12-18T05:50:19;-8.60;99.90
32612;DHT22;19030;49.478;8.986;2022-12-18T05:52:19;-8.50;99.90
32612;DHT22;19030;49.478;8.986;2022-12-18T05:54:20;-8.60;99.90
32612;DHT22;19030;49.478;8.986;2022-12-18T05:56:22;-8.60;99.90
32612;DHT22;19030;49.478;8.986;2022-12-18T05:58:23;-8.60;99.90
32612;DHT22;19030;49.478;8.986;2022-12-18T06:00:23;-8.60;99.90
32612;DHT22;19030;49.478;8.986;2022-12-18T06:02:24;-8.60;99.90
32612;DHT22;19030;49.478;8.986;2022-12-18T06:04:26;-8.60;99.90
32612;DHT22;19030;49.478;8.986;2022-12-18T06:06:28;-8.70;99.90
32612;DHT22;19030;49.478;8.986;2022-12-18T06:08:29;-8.70;99.90
32612;DHT22;19030;49.478;8.986;2022-12-18T06:10:29;-8.70;99.90
32612;DHT22;19030;49.478;8.986;2022-12-18T06:12:30;-8.70;99.90
32612;DHT22;19030;49.478;8.986;2022-12-18T06:14:31;-8.70;99.90
32612;DHT22;19030;49.478;8.986;2022-12-18T06:16:32;-8.70;99.90
32612;DHT22;19030;49.478;8.986;2022-12-18T06:18:32;-8.70;99.90
32612;DHT22;19030;49.478;8.986;2022-12-18T06:20:33;-8.70;99.90
32612;DHT22;19030;49.478;8.986;2022-12-18T06:22:34;-8.60;99.90
32612;DHT22;19030;49.478;8.986;2022-12-18T06:24:35;-8.70;99.90
32612;DHT22;19030;49.478;8.986;2022-12-18T06:26:38;-8.70;99.90
32612;DHT22;19030;49.478;8.986;2022-12-18T06:28:39;-8.70;99.90
32612;DHT22;19030;49.478;8.986;2022-12-18T06:30:39;-8.60;99.90
32612;DHT22;19030;49.478;8.986;2022-12-18T06:32:40;-8.60;99.90
32612;DHT22;19030;49.478;8.986;2022-12-18T06:34:40;-8.60;99.90
32612;DHT22;19030;49.478;8.986;2022-12-18T06:36:41;-8.70;99.90
32612;DHT22;19030;49.478;8.986;2022-12-18T06:38:43;-8.60;99.90
32612;DHT22;19030;49.478;8.986;2022-12-18T06:40:43;-8.60;99.90
32612;DHT22;19030;49.478;8.986;2022-12-18T06:42:44;-8.60;99.90
32612;DHT22;19030;49.478;8.986;2022-12-18T06:44:44;-8.60;99.90
32612;DHT22;19030;49.478;8.986;2022-12-18T06:46:45;-8.60;99.90
32612;DHT22;19030;49.478;8.986;2022-12-18T06:48:50;-8.60;99.90
32612;DHT22;19030;49.478;8.986;2022-12-18T06:50:50;-8.70;99.90
32612;DHT22;19030;49.478;8.986;2022-12-18T06:52:51;-8.70;99.90
32612;DHT22;19030;49.478;8.986;2022-12-18T06:54:51;-8.70;99.90
32612;DHT22;19030;49.478;8.986;2022-12-18T06:56:52;-8.70;99.90
32612;DHT22;19030;49.478;8.986;2022-12-18T06:58:53;-8.70;99.90
32612;DHT22;19030;49.478;8.986;2022-12-18T07:00:53;-8.60;99.90
32612;DHT22;19030;49.478;8.986;2022-12-18T07:02:55;-8.60;99.90
32612;DHT22;19030;49.478;8.986;2022-12-18T07:04:55;-8.60;99.90
32612;DHT22;19030;49.478;8.986;2022-12-18T07:06:56;-8.60;99.90
32612;DHT22;19030;49.478;8.986;2022-12-18T07:08:57;-8.50;99.90
32612;DHT22;19030;49.478;8.986;2022-12-18T07:10:58;-8.60;99.90
32612;DHT22;19030;49.478;8.986;2022-12-18T07:12:58;-8.60;99.90
32612;DHT22;19030;49.478;8.986;2022-12-18T07:14:59;-8.60;99.90
32612;DHT22;19030;49.478;8.986;2022-12-18T07:16:59;-8.50;99.90
32612;DHT22;19030;49.478;8.986;2022-12-18T07:19:00;-8.50;99.90
32612;DHT22;19030;49.478;8.986;2022-12-18T07:21:09;-8.40;99.90
32612;DHT22;19030;49.478;8.986;2022-12-18T07:23:11;-8.40;99.90
32612;DHT22;19030;49.478;8.986;2022-12-18T07:25:11;-8.40;99.90
32612;DHT22;19030;49.478;8.986;2022-12-18T07:27:12;-8.30;99.90
32612;DHT22;19030;49.478;8.986;2022-12-18T07:29:13;-8.30;99.90
32612;DHT22;19030;49.478;8.986;2022-12-18T07:31:17;-8.20;99.90
32612;DHT22;19030;49.478;8.986;2022-12-18T07:33:17;-8.20;99.90
32612;DHT22;19030;49.478;8.986;2022-12-18T07:35:18;-8.10;99.90
32612;DHT22;19030;49.478;8.986;2022-12-18T07:37:19;-8.10;99.90
32612;DHT22;19030;49.478;8.986;2022-12-18T07:39:19;-8.00;99.90
32612;DHT22;19030;49.478;8.986;2022-12-18T07:41:20;-8.00;99.90
32612;DHT22;19030;49.478;8.986;2022-12-18T07:43:21;-8.00;99.90
32612;DHT22;19030;49.478;8.986;2022-12-18T07:45:21;-8.00;99.90
32612;DHT22;19030;49.478;8.986;2022-12-18T07:47:22;-7.90;99.90
32612;DHT22;19030;49.478;8.986;2022-12-18T07:49:22;-7.90;99.90
32612;DHT22;19030;49.478;8.986;2022-12-18T07:51:23;-7.80;99.90
32612;DHT22;19030;49.478;8.986;2022-12-18T07:53:24;-7.70;99.90
32612;DHT22;19030;49.478;8.986;2022-12-18T07:55:24;-7.60;99.90
32612;DHT22;19030;49.478;8.986;2022-12-18T07:57:26;-7.50;99.90
32612;DHT22;19030;49.478;8.986;2022-12-18T07:59:27;-7.40;99.90
32612;DHT22;19030;49.478;8.986;2022-12-18T08:01:27;-7.30;99.90
32612;DHT22;19030;49.478;8.986;2022-12-18T08:03:28;-7.20;99.90
32612;DHT22;19030;49.478;8.986;2022-12-18T08:05:28;-7.10;99.90
32612;DHT22;19030;49.478;8.986;2022-12-18T08:07:29;-7.00;99.90
32612;DHT22;19030;49.478;8.986;2022-12-18T08:09:29;-6.90;99.90
32612;DHT22;19030;49.478;8.986;2022-12-18T08:11:30;-6.80;99.90
32612;DHT22;19030;49.478;8.986;2022-12-18T08:13:31;-6.70;99.90
32612;DHT22;19030;49.478;8.986;2022-12-18T08:15:32;-6.70;99.90
32612;DHT22;19030;49.478;8.986;2022-12-18T08:17:32;-6.40;99.90
32612;DHT22;19030;49.478;8.986;2022-12-18T08:19:33;-6.10;99.90
32612;DHT22;19030;49.478;8.986;2022-12-18T08:21:33;-5.60;99.90
32612;DHT22;19030;49.478;8.986;2022-12-18T08:23:34;-5.00;99.90
32612;DHT22;19030;49.478;8.986;2022-12-18T08:25:35;-4.10;99.90
32612;DHT22;19030;49.478;8.986;2022-12-18T08:27:36;-3.20;99.90
32612;DHT22;19030;49.478;8.986;2022-12-18T08:29:36;-2.60;99.90
32612;DHT22;19030;49.478;8.986;2022-12-18T08:31:37;-1.50;99.90
32612;DHT22;19030;49.478;8.986;2022-12-18T08:33:38;-0.50;99.90
32612;DHT22;19030;49.478;8.986;2022-12-18T08:35:39;0.60;98.50
32612;DHT22;19030;49.478;8.986;2022-12-18T08:37:40;1.30;92.70
32612;DHT22;19030;49.478;8.986;2022-12-18T08:39:40;1.70;89.40
32612;DHT22;19030;49.478;8.986;2022-12-18T08:41:41;2.30;83.60
32612;DHT22;19030;49.478;8.986;2022-12-18T08:43:41;2.50;79.40
32612;DHT22;19030;49.478;8.986;2022-12-18T08:46:01;2.70;78.40
32612;DHT22;19030;49.478;8.986;2022-12-18T08:48:01;2.10;75.70
32612;DHT22;19030;49.478;8.986;2022-12-18T08:50:02;1.10;77.70
32612;DHT22;19030;49.478;8.986;2022-12-18T08:52:03;0.40;81.00
32612;DHT22;19030;49.478;8.986;2022-12-18T08:54:04;-0.20;83.50
32612;DHT22;19030;49.478;8.986;2022-12-18T08:56:05;-0.70;86.90
32612;DHT22;19030;49.478;8.986;2022-12-18T08:58:06;-0.80;90.20
32612;DHT22;19030;49.478;8.986;2022-12-18T09:00:07;-0.90;91.00
32612;DHT22;19030;49.478;8.986;2022-12-18T09:02:10;-0.80;90.90
32612;DHT22;19030;49.478;8.986;2022-12-18T09:04:11;-0.80;91.40
32612;DHT22;19030;49.478;8.986;2022-12-18T09:06:15;-0.40;91.40
32612;DHT22;19030;49.478;8.986;2022-12-18T09:08:16;0.60;90.20
32612;DHT22;19030;49.478;8.986;2022-12-18T09:10:16;1.60;86.80
32612;DHT22;19030;49.478;8.986;2022-12-18T09:12:17;2.70;81.80
32612;DHT22;19030;49.478;8.986;2022-12-18T09:14:17;3.90;75.00
32612;DHT22;19030;49.478;8.986;2022-12-18T09:16:18;4.90;67.10
32612;DHT22;19030;49.478;8.986;2022-12-18T09:18:21;5.10;64.20
32612;DHT22;19030;49.478;8.986;2022-12-18T09:20:22;5.40;60.40
32612;DHT22;19030;49.478;8.986;2022-12-18T09:22:22;5.90;58.10
32612;DHT22;19030;49.478;8.986;2022-12-18T09:24:23;6.90;56.10
32612;DHT22;19030;49.478;8.986;2022-12-18T09:26:24;8.00;52.40
32612;DHT22;19030;49.478;8.986;2022-12-18T09:28:25;8.70;49.40
32612;DHT22;19030;49.478;8.986;2022-12-18T09:30:26;9.10;47.40
32612;DHT22;19030;49.478;8.986;2022-12-18T09:32:27;9.80;45.70
32612;DHT22;19030;49.478;8.986;2022-12-18T09:34:27;9.90;44.00
32612;DHT22;19030;49.478;8.986;2022-12-18T09:36:28;10.40;43.30
32612;DHT22;19030;49.478;8.986;2022-12-18T09:38:31;10.20;41.80
32612;DHT22;19030;49.478;8.986;2022-12-18T09:40:40;10.20;42.30
32612;DHT22;19030;49.478;8.986;2022-12-18T09:42:45;10.90;42.30
32612;DHT22;19030;49.478;8.986;2022-12-18T09:44:53;11.80;41.00
32612;DHT22;19030;49.478;8.986;2022-12-18T09:47:18;12.10;39.60
32612;DHT22;19030;49.478;8.986;2022-12-18T09:49:22;12.40;39.40
32612;DHT22;19030;49.478;8.986;2022-12-18T09:51:37;12.40;38.90
32612;DHT22;19030;49.478;8.986;2022-12-18T09:53:41;12.40;39.20
32612;DHT22;19030;49.478;8.986;2022-12-18T09:55:46;12.70;38.70
32612;DHT22;19030;49.478;8.986;2022-12-18T09:57:51;12.60;38.50
32612;DHT22;19030;49.478;8.986;2022-12-18T09:59:58;13.00;38.20
32612;DHT22;19030;49.478;8.986;2022-12-18T10:01:59;12.70;37.90
32612;DHT22;19030;49.478;8.986;2022-12-18T10:04:02;13.00;37.80
32612;DHT22;19030;49.478;8.986;2022-12-18T10:06:15;13.60;36.80
32612;DHT22;19030;49.478;8.986;2022-12-18T10:08:23;14.00;35.90
32612;DHT22;19030;49.478;8.986;2022-12-18T10:15:32;14.60;33.50
32612;DHT22;19030;49.478;8.986;2022-12-18T10:20:30;12.30;37.50
32612;DHT22;19030;49.478;8.986;2022-12-18T10:22:45;11.50;38.90
32612;DHT22;19030;49.478;8.986;2022-12-18T10:26:58;10.20;40.40
32612;DHT22;19030;49.478;8.986;2022-12-18T10:29:00;9.90;41.70
32612;DHT22;19030;49.478;8.986;2022-12-18T10:31:01;9.30;42.70
32612;DHT22;19030;49.478;8.986;2022-12-18T10:33:03;9.20;43.40
32612;DHT22;19030;49.478;8.986;2022-12-18T10:35:03;9.50;42.70
32612;DHT22;19030;49.478;8.986;2022-12-18T10:37:06;9.80;42.80
32612;DHT22;19030;49.478;8.986;2022-12-18T10:39:22;9.30;42.80
32612;DHT22;19030;49.478;8.986;2022-12-18T10:41:26;8.90;43.50
32612;DHT22;19030;49.478;8.986;2022-12-18T10:43:38;8.60;44.10
32612;DHT22;19030;49.478;8.986;2022-12-18T10:45:40;8.40;45.20
32612;DHT22;19030;49.478;8.986;2022-12-18T10:47:45;8.40;45.60
32612;DHT22;19030;49.478;8.986;2022-12-18T10:49:51;8.20;46.10
32612;DHT22;19030;49.478;8.986;2022-12-18T10:52:22;8.50;46.50
32612;DHT22;19030;49.478;8.986;2022-12-18T10:54:25;9.50;44.90
32612;DHT22;19030;49.478;8.986;2022-12-18T10:56:29;10.30;43.80
32612;DHT22;19030;49.478;8.986;2022-12-18T10:58:38;10.30;42.80
32612;DHT22;19030;49.478;8.986;2022-12-18T11:00:39;10.00;43.20
32612;DHT22;19030;49.478;8.986;2022-12-18T11:02:39;9.50;43.40
32612;DHT22;19030;49.478;8.986;2022-12-18T11:04:50;8.60;45.20
32612;DHT22;19030;49.478;8.986;2022-12-18T11:07:03;7.70;47.10
32612;DHT22;19030;49.478;8.986;2022-12-18T11:09:07;7.20;48.50
32612;DHT22;19030;49.478;8.986;2022-12-18T11:11:23;6.80;50.20
32612;DHT22;19030;49.478;8.986;2022-12-18T11:13:26;6.60;50.90
32612;DHT22;19030;49.478;8.986;2022-12-18T11:15:29;6.70;51.30
32612;DHT22;19030;49.478;8.986;2022-12-18T11:17:35;7.10;51.10
32612;DHT22;19030;49.478;8.986;2022-12-18T11:19:37;7.00;49.80
32612;DHT22;19030;49.478;8.986;2022-12-18T11:21:40;7.00;50.50
32612;DHT22;19030;49.478;8.986;2022-12-18T11:23:49;8.00;49.50
32612;DHT22;19030;49.478;8.986;2022-12-18T11:25:55;8.70;47.70
32612;DHT22;19030;49.478;8.986;2022-12-18T11:28:02;8.90;47.40
32612;DHT22;19030;49.478;8.986;2022-12-18T11:30:09;8.90;46.90
32612;DHT22;19030;49.478;8.986;2022-12-18T11:32:36;9.30;45.90
32612;DHT22;19030;49.478;8.986;2022-12-18T11:34:37;9.90;45.10
32612;DHT22;19030;49.478;8.986;2022-12-18T11:36:42;10.40;44.40
32612;DHT22;19030;49.478;8.986;2022-12-18T11:38:45;10.40;43.40
32612;DHT22;19030;49.478;8.986;2022-12-18T11:43:15;10.80;43.90
32612;DHT22;19030;49.478;8.986;2022-12-18T11:45:28;10.20;44.00
32612;DHT22;19030;49.478;8.986;2022-12-18T11:50:14;7.70;47.50
32612;DHT22;19030;49.478;8.986;2022-12-18T11:52:23;6.90;49.90
32612;DHT22;19030;49.478;8.986;2022-12-18T11:54:25;6.90;50.90
32612;DHT22;19030;49.478;8.986;2022-12-18T11:56:48;7.20;50.40
32612;DHT22;19030;49.478;8.986;2022-12-18T11:59:23;6.80;51.50
32612;DHT22;19030;49.478;8.986;2022-12-18T12:03:58;7.30;51.30
32612;DHT22;19030;49.478;8.986;2022-12-18T12:06:21;7.90;49.50
32612;DHT22;19030;49.478;8.986;2022-12-18T12:08:27;8.90;48.20
32612;DHT22;19030;49.478;8.986;2022-12-18T12:10:53;8.80;47.60
32612;DHT22;19030;49.478;8.986;2022-12-18T12:15:48;8.30;48.30
32612;DHT22;19030;49.478;8.986;2022-12-18T12:27:19;6.50;52.20
32612;DHT22;19030;49.478;8.986;2022-12-18T12:29:42;6.00;53.60
32612;DHT22;19030;49.478;8.986;2022-12-18T12:31:56;5.80;54.00
32612;DHT22;19030;49.478;8.986;2022-12-18T12:34:51;5.60;54.40
32612;DHT22;19030;49.478;8.986;2022-12-18T12:39:05;5.30;55.80
32612;DHT22;19030;49.478;8.986;2022-12-18T12:41:11;5.20;56.00
32612;DHT22;19030;49.478;8.986;2022-12-18T12:43:44;5.40;56.20
32612;DHT22;19030;49.478;8.986;2022-12-18T12:46:08;5.20;56.60
32612;DHT22;19030;49.478;8.986;2022-12-18T12:48:19;5.10;56.80
32612;DHT22;19030;49.478;8.986;2022-12-18T12:50:21;5.40;56.50
32612;DHT22;19030;49.478;8.986;2022-12-18T12:52:32;5.40;56.20
32612;DHT22;19030;49.478;8.986;2022-12-18T12:54:34;5.40;56.90
32612;DHT22;19030;49.478;8.986;2022-12-18T13:03:53;4.10;59.40
32612;DHT22;19030;49.478;8.986;2022-12-18T13:05:58;3.90;60.80
32612;DHT22;19030;49.478;8.986;2022-12-18T13:08:09;3.70;61.70
32612;DHT22;19030;49.478;8.986;2022-12-18T13:12:22;3.50;63.60
32612;DHT22;19030;49.478;8.986;2022-12-18T13:14:42;3.10;64.80
32612;DHT22;19030;49.478;8.986;2022-12-18T13:16:42;2.80;65.90
32612;DHT22;19030;49.478;8.986;2022-12-18T13:18:52;2.50;67.00
32612;DHT22;19030;49.478;8.986;2022-12-18T13:22:59;1.80;70.40
32612;DHT22;19030;49.478;8.986;2022-12-18T13:25:00;1.60;71.80
32612;DHT22;19030;49.478;8.986;2022-12-18T13:29:51;1.00;76.10
32612;DHT22;19030;49.478;8.986;2022-12-18T13:42:40;0.50;87.50
32612;DHT22;19030;49.478;8.986;2022-12-18T13:44:59;0.40;89.40
32612;DHT22;19030;49.478;8.986;2022-12-18T13:47:04;0.40;91.10
32612;DHT22;19030;49.478;8.986;2022-12-18T13:51:34;0.50;91.60
32612;DHT22;19030;49.478;8.986;2022-12-18T13:53:43;0.50;92.10
32612;DHT22;19030;49.478;8.986;2022-12-18T13:55:45;0.50;92.50
32612;DHT22;19030;49.478;8.986;2022-12-18T13:57:45;0.50;92.90
32612;DHT22;19030;49.478;8.986;2022-12-18T13:59:46;0.40;93.30
32612;DHT22;19030;49.478;8.986;2022-12-18T14:01:58;0.40;93.90
32612;DHT22;19030;49.478;8.986;2022-12-18T14:04:10;0.40;94.40
32612;DHT22;19030;49.478;8.986;2022-12-18T14:06:11;0.30;94.90
32612;DHT22;19030;49.478;8.986;2022-12-18T14:08:16;0.20;95.60
32612;DHT22;19030;49.478;8.986;2022-12-18T14:10:17;0.20;96.20
32612;DHT22;19030;49.478;8.986;2022-12-18T14:12:25;0.00;97.00
32612;DHT22;19030;49.478;8.986;2022-12-18T14:14:47;0.00;97.70
32612;DHT22;19030;49.478;8.986;2022-12-18T14:16:48;-0.10;98.30
32612;DHT22;19030;49.478;8.986;2022-12-18T14:18:56;-0.30;99.30
32612;DHT22;19030;49.478;8.986;2022-12-18T14:20:58;-0.40;99.90
32612;DHT22;19030;49.478;8.986;2022-12-18T14:22:59;-0.50;99.90
32612;DHT22;19030;49.478;8.986;2022-12-18T14:27:24;-0.60;99.90
32612;DHT22;19030;49.478;8.986;2022-12-18T14:29:34;-0.70;99.90
32612;DHT22;19030;49.478;8.986;2022-12-18T14:31:35;-0.70;99.90